sensor_id;sensor_type;location;lat;lon;timestamp;P1;durP1;ratioP1;P2;durP2;ratioP2
14324;SDS011;7246;51.922;4.488;2022-09-03T00:01:55;1057.3;;;999.9;;
14324;SDS011;7246;51.922;4.488;2022-09-03T00:03:54;1050.2;;;995.6;;
14324;SDS011;7246;51.922;4.488;2022-09-03T00:05:55;1032.2;;;983.0;;
14324;SDS011;7246;51.922;4.488;2022-09-03T00:07:54;1027.0;;;978.0;;
14324;SDS011;7246;51.922;4.488;2022-09-03T00:09:53;1042.0;;;992.3;;
14324;SDS011;7246;51.922;4.488;2022-09-03T00:11:53;1027.8;;;978.8;;
14324;SDS011;7246;51.922;4.488;2022-09-03T00:13:53;1029.2;;;980.1;;
14324;SDS011;7246;51.922;4.488;2022-09-03T00:15:52;1041.3;;;991.6;;
14324;SDS011;7246;51.922;4.488;2022-09-03T00:17:53;1077.1;;;999.9;;
14324;SDS011;7246;51.922;4.488;2022-09-03T00:19:52;1080.5;;;999.9;;
14324;SDS011;7246;51.922;4.488;2022-09-03T00:21:53;1143.1;;;999.9;;
14324;SDS011;7246;51.922;4.488;2022-09-03T00:23:52;1151.5;;;999.9;;
14324;SDS011;7246;51.922;4.488;2022-09-03T00:25:53;1138.7;;;999.9;;
14324;SDS011;7246;51.922;4.488;2022-09-03T00:27:52;1047.8;;;991.3;;
14324;SDS011;7246;51.922;4.488;2022-09-03T00:29:53;1016.7;;;968.3;;
14324;SDS011;7246;51.922;4.488;2022-09-03T00:31:52;1034.0;;;984.6;;
14324;SDS011;7246;51.922;4.488;2022-09-03T00:33:53;1024.0;;;975.2;;
14324;SDS011;7246;51.922;4.488;2022-09-03T00:35:53;1050.7;;;995.1;;
14324;SDS011;7246;51.922;4.488;2022-09-03T00:37:52;1124.1;;;999.9;;
14324;SDS011;7246;51.922;4.488;2022-09-03T00:39:52;1110.5;;;999.9;;
14324;SDS011;7246;51.922;4.488;2022-09-03T00:41:55;1111.3;;;999.9;;
14324;SDS011;7246;51.922;4.488;2022-09-03T00:43:57;1118.0;;;999.9;;
14324;SDS011;7246;51.922;4.488;2022-09-03T00:45:54;1114.1;;;999.9;;
14324;SDS011;7246;51.922;4.488;2022-09-03T00:47:55;1117.1;;;999.9;;
14324;SDS011;7246;51.922;4.488;2022-09-03T00:49:55;1137.0;;;999.9;;
14324;SDS011;7246;51.922;4.488;2022-09-03T00:51:54;1126.8;;;999.9;;
14324;SDS011;7246;51.922;4.488;2022-09-03T00:53:54;1092.3;;;999.9;;
14324;SDS011;7246;51.922;4.488;2022-09-03T01:01:56;1102.3;;;999.9;;
14324;SDS011;7246;51.922;4.488;2022-09-03T01:03:54;1105.4;;;999.9;;
14324;SDS011;7246;51.922;4.488;2022-09-03T01:05:56;1111.5;;;999.9;;
14324;SDS011;7246;51.922;4.488;2022-09-03T01:07:54;1056.9;;;999.0;;
14324;SDS011;7246;51.922;4.488;2022-09-03T01:09:54;1035.9;;;986.5;;
14324;SDS011;7246;51.922;4.488;2022-09-03T01:11:55;1040.7;;;989.8;;
14324;SDS011;7246;51.922;4.488;2022-09-03T01:13:55;1035.5;;;986.1;;
14324;SDS011;7246;51.922;4.488;2022-09-03T01:15:55;1019.9;;;971.3;;
14324;SDS011;7246;51.922;4.488;2022-09-03T01:17:56;1050.1;;;995.8;;
14324;SDS011;7246;51.922;4.488;2022-09-03T01:19:57;1037.9;;;988.4;;
14324;SDS011;7246;51.922;4.488;2022-09-03T01:21:58;1041.8;;;992.2;;
14324;SDS011;7246;51.922;4.488;2022-09-03T01:23:57;1028.2;;;979.2;;
14324;SDS011;7246;51.922;4.488;2022-09-03T01:25:53;1016.8;;;968.3;;
14324;SDS011;7246;51.922;4.488;2022-09-03T01:27:59;1024.6;;;975.8;;
14324;SDS011;7246;51.922;4.488;2022-09-03T01:29:54;1018.5;;;969.9;;
14324;SDS011;7246;51.922;4.488;2022-09-03T01:31:56;1029.2;;;980.1;;
14324;SDS011;7246;51.922;4.488;2022-09-03T01:33:54;1023.0;;;974.3;;
14324;SDS011;7246;51.922;4.488;2022-09-03T01:35:55;1048.7;;;992.3;;
14324;SDS011;7246;51.922;4.488;2022-09-03T01:37:56;1103.4;;;999.9;;
14324;SDS011;7246;51.922;4.488;2022-09-03T01:39:55;1105.5;;;999.9;;
14324;SDS011;7246;51.922;4.488;2022-09-03T01:41:55;1101.3;;;999.9;;
14324;SDS011;7246;51.922;4.488;2022-09-03T01:43:54;1100.9;;;999.9;;
14324;SDS011;7246;51.922;4.488;2022-09-03T01:45:54;1091.1;;;999.9;;
14324;SDS011;7246;51.922;4.488;2022-09-03T01:47:57;1100.1;;;999.9;;
14324;SDS011;7246;51.922;4.488;2022-09-03T01:49:53;1109.8;;;999.9;;
14324;SDS011;7246;51.922;4.488;2022-09-03T01:51:54;1105.0;;;999.9;;
14324;SDS011;7246;51.922;4.488;2022-09-03T01:54:08;1108.3;;;999.9;;
14324;SDS011;7246;51.922;4.488;2022-09-03T01:55:57;1114.7;;;999.9;;
14324;SDS011;7246;51.922;4.488;2022-09-03T01:57:53;1088.4;;;999.9;;
14324;SDS011;7246;51.922;4.488;2022-09-03T01:59:55;1090.7;;;999.9;;
14324;SDS011;7246;51.922;4.488;2022-09-03T02:01:54;1111.2;;;999.9;;
14324;SDS011;7246;51.922;4.488;2022-09-03T02:03:53;1091.7;;;999.9;;
14324;SDS011;7246;51.922;4.488;2022-09-03T02:05:53;1078.4;;;999.9;;
14324;SDS011;7246;51.922;4.488;2022-09-03T02:07:55;1065.8;;;999.9;;
14324;SDS011;7246;51.922;4.488;2022-09-03T02:09:53;1072.8;;;999.9;;
14324;SDS011;7246;51.922;4.488;2022-09-03T02:11:54;1078.5;;;999.9;;
14324;SDS011;7246;51.922;4.488;2022-09-03T02:13:53;1077.8;;;999.9;;
14324;SDS011;7246;51.922;4.488;2022-09-03T02:15:55;1069.7;;;999.9;;
14324;SDS011;7246;51.922;4.488;2022-09-03T02:17:54;1065.5;;;999.9;;
14324;SDS011;7246;51.922;4.488;2022-09-03T02:19:53;1080.5;;;999.9;;
14324;SDS011;7246;51.922;4.488;2022-09-03T02:21:54;1022.2;;;973.4;;
14324;SDS011;7246;51.922;4.488;2022-09-03T02:23:53;1008.9;;;960.8;;
14324;SDS011;7246;51.922;4.488;2022-09-03T02:25:54;1002.2;;;954.4;;
14324;SDS011;7246;51.922;4.488;2022-09-03T02:27:53;1002.5;;;954.7;;
14324;SDS011;7246;51.922;4.488;2022-09-03T02:29:53;989.1;;;941.9;;
14324;SDS011;7246;51.922;4.488;2022-09-03T02:31:53;999.0;;;951.4;;
14324;SDS011;7246;51.922;4.488;2022-09-03T02:33:54;1001.3;;;953.6;;
14324;SDS011;7246;51.922;4.488;2022-09-03T02:35:53;1008.9;;;960.8;;
14324;SDS011;7246;51.922;4.488;2022-09-03T02:37:53;997.7;;;950.1;;
14324;SDS011;7246;51.922;4.488;2022-09-03T02:39:53;992.1;;;944.8;;
14324;SDS011;7246;51.922;4.488;2022-09-03T02:41:54;985.3;;;938.3;;
14324;SDS011;7246;51.922;4.488;2022-09-03T02:43:54;999.8;;;952.1;;
14324;SDS011;7246;51.922;4.488;2022-09-03T02:45:54;992.4;;;945.1;;
14324;SDS011;7246;51.922;4.488;2022-09-03T02:47:54;1002.4;;;954.6;;
14324;SDS011;7246;51.922;4.488;2022-09-03T02:49:53;992.0;;;944.7;;
14324;SDS011;7246;51.922;4.488;2022-09-03T02:51:57;991.6;;;944.3;;
14324;SDS011;7246;51.922;4.488;2022-09-03T02:53:53;994.2;;;946.8;;
14324;SDS011;7246;51.922;4.488;2022-09-03T02:55:56;998.1;;;950.6;;
14324;SDS011;7246;51.922;4.488;2022-09-03T02:57:53;1044.0;;;984.8;;
14324;SDS011;7246;51.922;4.488;2022-09-03T02:59:53;1075.6;;;999.9;;
14324;SDS011;7246;51.922;4.488;2022-09-03T03:01:54;1066.3;;;999.6;;
14324;SDS011;7246;51.922;4.488;2022-09-03T03:03:53;1057.0;;;997.6;;
14324;SDS011;7246;51.922;4.488;2022-09-03T03:05:54;1064.8;;;999.9;;
14324;SDS011;7246;51.922;4.488;2022-09-03T03:07:53;1070.5;;;999.9;;
14324;SDS011;7246;51.922;4.488;2022-09-03T03:09:54;1058.1;;;999.9;;
14324;SDS011;7246;51.922;4.488;2022-09-03T03:11:54;1041.4;;;991.1;;
14324;SDS011;7246;51.922;4.488;2022-09-03T03:13:54;1063.2;;;999.9;;
14324;SDS011;7246;51.922;4.488;2022-09-03T03:15:54;1066.4;;;999.9;;
14324;SDS011;7246;51.922;4.488;2022-09-03T03:17:54;1060.0;;;999.9;;
14324;SDS011;7246;51.922;4.488;2022-09-03T03:19:54;1080.2;;;999.9;;
14324;SDS011;7246;51.922;4.488;2022-09-03T03:21:54;1068.0;;;999.9;;
14324;SDS011;7246;51.922;4.488;2022-09-03T03:23:54;1045.1;;;993.9;;
14324;SDS011;7246;51.922;4.488;2022-09-03T03:25:59;1046.1;;;993.7;;
14324;SDS011;7246;51.922;4.488;2022-09-03T03:27:54;1059.8;;;999.4;;
14324;SDS011;7246;51.922;4.488;2022-09-03T03:29:54;1045.3;;;995.5;;
14324;SDS011;7246;51.922;4.488;2022-09-03T03:31:54;1057.9;;;997.8;;
14324;SDS011;7246;51.922;4.488;2022-09-03T03:33:54;1046.4;;;996.0;;
14324;SDS011;7246;51.922;4.488;2022-09-03T03:35:54;1054.0;;;999.9;;
14324;SDS011;7246;51.922;4.488;2022-09-03T03:37:56;1035.3;;;985.6;;
14324;SDS011;7246;51.922;4.488;2022-09-03T03:39:54;1001.9;;;954.2;;
14324;SDS011;7246;51.922;4.488;2022-09-03T03:41:54;967.1;;;919.6;;
14324;SDS011;7246;51.922;4.488;2022-09-03T03:43:54;971.2;;;924.9;;
14324;SDS011;7246;51.922;4.488;2022-09-03T03:45:55;962.7;;;916.4;;
14324;SDS011;7246;51.922;4.488;2022-09-03T03:47:56;978.1;;;924.4;;
14324;SDS011;7246;51.922;4.488;2022-09-03T03:49:54;975.9;;;929.4;;
14324;SDS011;7246;51.922;4.488;2022-09-03T03:51:54;981.9;;;935.1;;
14324;SDS011;7246;51.922;4.488;2022-09-03T03:53:55;971.3;;;925.0;;
14324;SDS011;7246;51.922;4.488;2022-09-03T03:55:54;985.9;;;938.9;;
14324;SDS011;7246;51.922;4.488;2022-09-03T03:57:54;988.0;;;936.9;;
14324;SDS011;7246;51.922;4.488;2022-09-03T03:59:54;985.3;;;926.3;;
14324;SDS011;7246;51.922;4.488;2022-09-03T04:01:54;973.0;;;923.2;;
14324;SDS011;7246;51.922;4.488;2022-09-03T04:03:54;968.0;;;910.7;;
14324;SDS011;7246;51.922;4.488;2022-09-03T04:05:54;958.3;;;908.7;;
14324;SDS011;7246;51.922;4.488;2022-09-03T04:07:54;960.7;;;913.4;;
14324;SDS011;7246;51.922;4.488;2022-09-03T04:09:54;978.5;;;931.8;;
14324;SDS011;7246;51.922;4.488;2022-09-03T04:11:54;978.7;;;932.0;;
14324;SDS011;7246;51.922;4.488;2022-09-03T04:13:55;964.9;;;918.9;;
14324;SDS011;7246;51.922;4.488;2022-09-03T04:15:58;961.7;;;915.1;;
14324;SDS011;7246;51.922;4.488;2022-09-03T04:17:54;1034.9;;;985.6;;
14324;SDS011;7246;51.922;4.488;2022-09-03T04:19:54;1029.3;;;980.2;;
14324;SDS011;7246;51.922;4.488;2022-09-03T04:21:54;1037.0;;;986.6;;
14324;SDS011;7246;51.922;4.488;2022-09-03T04:23:55;1058.9;;;999.9;;
14324;SDS011;7246;51.922;4.488;2022-09-03T04:25:54;1042.7;;;992.7;;
14324;SDS011;7246;51.922;4.488;2022-09-03T04:27:54;1027.2;;;978.2;;
14324;SDS011;7246;51.922;4.488;2022-09-03T04:29:54;1037.7;;;988.2;;
14324;SDS011;7246;51.922;4.488;2022-09-03T04:31:54;1022.3;;;973.6;;
14324;SDS011;7246;51.922;4.488;2022-09-03T04:33:54;1051.0;;;997.7;;
14324;SDS011;7246;51.922;4.488;2022-09-03T04:36:00;1037.9;;;988.4;;
14324;SDS011;7246;51.922;4.488;2022-09-03T04:37:54;1044.6;;;989.1;;
14324;SDS011;7246;51.922;4.488;2022-09-03T04:39:54;1044.9;;;994.2;;
14324;SDS011;7246;51.922;4.488;2022-09-03T04:41:54;1036.6;;;987.1;;
14324;SDS011;7246;51.922;4.488;2022-09-03T04:43:55;1043.4;;;993.0;;
14324;SDS011;7246;51.922;4.488;2022-09-03T04:45:55;1029.8;;;980.7;;
14324;SDS011;7246;51.922;4.488;2022-09-03T04:47:55;1036.7;;;987.1;;
14324;SDS011;7246;51.922;4.488;2022-09-03T04:49:55;1025.9;;;977.0;;
14324;SDS011;7246;51.922;4.488;2022-09-03T04:51:55;1038.8;;;989.2;;
14324;SDS011;7246;51.922;4.488;2022-09-03T04:53:55;1037.5;;;988.0;;
14324;SDS011;7246;51.922;4.488;2022-09-03T04:55:55;1055.1;;;998.4;;
14324;SDS011;7246;51.922;4.488;2022-09-03T04:57:55;1023.5;;;974.7;;
14324;SDS011;7246;51.922;4.488;2022-09-03T04:59:55;968.1;;;918.6;;
14324;SDS011;7246;51.922;4.488;2022-09-03T05:01:55;1005.3;;;934.9;;
14324;SDS011;7246;51.922;4.488;2022-09-03T05:03:55;985.4;;;936.5;;
14324;SDS011;7246;51.922;4.488;2022-09-03T05:05:55;968.5;;;921.7;;
14324;SDS011;7246;51.922;4.488;2022-09-03T05:07:56;981.2;;;934.4;;
14324;SDS011;7246;51.922;4.488;2022-09-03T05:09:55;985.8;;;938.8;;
14324;SDS011;7246;51.922;4.488;2022-09-03T05:11:55;976.1;;;929.0;;
14324;SDS011;7246;51.922;4.488;2022-09-03T05:13:56;967.6;;;918.2;;
14324;SDS011;7246;51.922;4.488;2022-09-03T05:15:58;980.8;;;933.9;;
14324;SDS011;7246;51.922;4.488;2022-09-03T05:17:55;981.4;;;934.6;;
14324;SDS011;7246;51.922;4.488;2022-09-03T05:19:55;971.2;;;924.9;;
14324;SDS011;7246;51.922;4.488;2022-09-03T05:21:55;962.1;;;916.3;;
14324;SDS011;7246;51.922;4.488;2022-09-03T05:23:55;972.5;;;926.2;;
14324;SDS011;7246;51.922;4.488;2022-09-03T05:25:55;968.0;;;921.8;;
14324;SDS011;7246;51.922;4.488;2022-09-03T05:27:55;968.1;;;922.0;;
14324;SDS011;7246;51.922;4.488;2022-09-03T05:29:55;959.9;;;914.1;;
14324;SDS011;7246;51.922;4.488;2022-09-03T05:31:55;954.6;;;909.1;;
14324;SDS011;7246;51.922;4.488;2022-09-03T05:33:56;962.2;;;909.2;;
14324;SDS011;7246;51.922;4.488;2022-09-03T05:35:59;978.5;;;924.2;;
14324;SDS011;7246;51.922;4.488;2022-09-03T05:37:55;1025.4;;;976.6;;
14324;SDS011;7246;51.922;4.488;2022-09-03T05:39:55;1033.0;;;983.7;;
14324;SDS011;7246;51.922;4.488;2022-09-03T05:41:55;1019.4;;;970.8;;
14324;SDS011;7246;51.922;4.488;2022-09-03T05:43:55;1016.9;;;968.4;;
14324;SDS011;7246;51.922;4.488;2022-09-03T05:45:56;1021.6;;;972.9;;
14324;SDS011;7246;51.922;4.488;2022-09-03T05:47:58;1060.2;;;998.2;;
14324;SDS011;7246;51.922;4.488;2022-09-03T05:49:55;1094.8;;;999.9;;
14324;SDS011;7246;51.922;4.488;2022-09-03T05:51:55;1070.7;;;999.9;;
14324;SDS011;7246;51.922;4.488;2022-09-03T05:53:56;1077.2;;;999.9;;
14324;SDS011;7246;51.922;4.488;2022-09-03T05:55:55;1062.0;;;999.7;;
14324;SDS011;7246;51.922;4.488;2022-09-03T05:57:55;1067.8;;;999.9;;
14324;SDS011;7246;51.922;4.488;2022-09-03T05:59:55;1045.7;;;992.5;;
14324;SDS011;7246;51.922;4.488;2022-09-03T06:01:55;992.9;;;945.6;;
14324;SDS011;7246;51.922;4.488;2022-09-03T06:03:56;977.2;;;930.6;;
14324;SDS011;7246;51.922;4.488;2022-09-03T06:05:55;1006.4;;;958.5;;
14324;SDS011;7246;51.922;4.488;2022-09-03T06:07:55;1006.5;;;958.5;;
14324;SDS011;7246;51.922;4.488;2022-09-03T06:09:56;985.3;;;938.3;;
14324;SDS011;7246;51.922;4.488;2022-09-03T06:11:55;995.3;;;947.9;;
14324;SDS011;7246;51.922;4.488;2022-09-03T06:13:56;988.3;;;941.2;;
14324;SDS011;7246;51.922;4.488;2022-09-03T06:15:56;985.3;;;938.4;;
14324;SDS011;7246;51.922;4.488;2022-09-03T06:17:55;990.9;;;943.6;;
14324;SDS011;7246;51.922;4.488;2022-09-03T06:19:56;1048.6;;;984.6;;
14324;SDS011;7246;51.922;4.488;2022-09-03T06:21:55;1058.1;;;999.7;;
14324;SDS011;7246;51.922;4.488;2022-09-03T06:23:56;1038.7;;;988.3;;
14324;SDS011;7246;51.922;4.488;2022-09-03T06:25:59;1064.2;;;999.6;;
14324;SDS011;7246;51.922;4.488;2022-09-03T06:27:56;1069.2;;;999.9;;
14324;SDS011;7246;51.922;4.488;2022-09-03T06:29:56;1056.3;;;999.5;;
14324;SDS011;7246;51.922;4.488;2022-09-03T06:31:56;1061.8;;;999.9;;
14324;SDS011;7246;51.922;4.488;2022-09-03T06:33:56;1055.7;;;999.9;;
14324;SDS011;7246;51.922;4.488;2022-09-03T06:35:56;1068.1;;;999.9;;
14324;SDS011;7246;51.922;4.488;2022-09-03T06:37:56;1056.9;;;999.0;;
14324;SDS011;7246;51.922;4.488;2022-09-03T06:39:56;1044.5;;;993.1;;
14324;SDS011;7246;51.922;4.488;2022-09-03T06:41:56;1031.4;;;982.2;;
14324;SDS011;7246;51.922;4.488;2022-09-03T06:43:57;1035.3;;;985.7;;
14324;SDS011;7246;51.922;4.488;2022-09-03T06:45:57;1037.3;;;987.8;;
14324;SDS011;7246;51.922;4.488;2022-09-03T06:47:56;1054.3;;;998.9;;
14324;SDS011;7246;51.922;4.488;2022-09-03T06:49:56;1052.4;;;999.7;;
14324;SDS011;7246;51.922;4.488;2022-09-03T06:51:56;1063.0;;;999.6;;
14324;SDS011;7246;51.922;4.488;2022-09-03T06:53:58;1063.4;;;999.0;;
14324;SDS011;7246;51.922;4.488;2022-09-03T06:55:57;1032.0;;;982.8;;
14324;SDS011;7246;51.922;4.488;2022-09-03T06:57:56;1056.8;;;998.8;;
14324;SDS011;7246;51.922;4.488;2022-09-03T06:59:56;1044.0;;;992.2;;
14324;SDS011;7246;51.922;4.488;2022-09-03T07:01:56;1049.9;;;997.6;;
14324;SDS011;7246;51.922;4.488;2022-09-03T07:03:57;1058.5;;;995.8;;
14324;SDS011;7246;51.922;4.488;2022-09-03T07:05:59;1039.1;;;989.0;;
14324;SDS011;7246;51.922;4.488;2022-09-03T07:07:56;1044.5;;;994.8;;
14324;SDS011;7246;51.922;4.488;2022-09-03T07:09:56;1043.7;;;993.7;;
14324;SDS011;7246;51.922;4.488;2022-09-03T07:11:56;1050.3;;;996.6;;
14324;SDS011;7246;51.922;4.488;2022-09-03T07:13:56;1040.4;;;990.8;;
14324;SDS011;7246;51.922;4.488;2022-09-03T07:15:57;1010.2;;;962.1;;
14324;SDS011;7246;51.922;4.488;2022-09-03T07:17:56;964.8;;;918.8;;
14324;SDS011;7246;51.922;4.488;2022-09-03T07:19:56;955.9;;;910.3;;
14324;SDS011;7246;51.922;4.488;2022-09-03T07:21:56;967.4;;;921.3;;
14324;SDS011;7246;51.922;4.488;2022-09-03T07:23:56;978.6;;;932.0;;
14324;SDS011;7246;51.922;4.488;2022-09-03T07:25:57;975.6;;;929.1;;
14324;SDS011;7246;51.922;4.488;2022-09-03T07:27:56;970.9;;;924.6;;
14324;SDS011;7246;51.922;4.488;2022-09-03T07:29:56;974.8;;;928.3;;
14324;SDS011;7246;51.922;4.488;2022-09-03T07:31:56;967.4;;;921.2;;
14324;SDS011;7246;51.922;4.488;2022-09-03T07:33:57;993.9;;;946.5;;
14324;SDS011;7246;51.922;4.488;2022-09-03T07:36:00;976.1;;;929.5;;
14324;SDS011;7246;51.922;4.488;2022-09-03T07:37:56;963.3;;;917.4;;
14324;SDS011;7246;51.922;4.488;2022-09-03T07:39:56;1014.6;;;960.9;;
14324;SDS011;7246;51.922;4.488;2022-09-03T07:41:56;1042.0;;;989.5;;
14324;SDS011;7246;51.922;4.488;2022-09-03T07:43:56;1017.4;;;968.8;;
14324;SDS011;7246;51.922;4.488;2022-09-03T07:45:56;1019.9;;;971.3;;
14324;SDS011;7246;51.922;4.488;2022-09-03T07:47:57;1028.7;;;979.6;;
14324;SDS011;7246;51.922;4.488;2022-09-03T07:49:56;1051.9;;;994.2;;
14324;SDS011;7246;51.922;4.488;2022-09-03T07:51:56;1080.0;;;999.9;;
14324;SDS011;7246;51.922;4.488;2022-09-03T07:53:57;1026.8;;;977.9;;
14324;SDS011;7246;51.922;4.488;2022-09-03T07:56:00;1057.4;;;996.1;;
14324;SDS011;7246;51.922;4.488;2022-09-03T07:57:57;1048.2;;;992.0;;
14324;SDS011;7246;51.922;4.488;2022-09-03T07:59:56;1047.2;;;996.5;;
14324;SDS011;7246;51.922;4.488;2022-09-03T08:01:57;979.5;;;932.8;;
14324;SDS011;7246;51.922;4.488;2022-09-03T08:03:57;947.5;;;902.3;;
14324;SDS011;7246;51.922;4.488;2022-09-03T08:05:59;967.5;;;921.4;;
14324;SDS011;7246;51.922;4.488;2022-09-03T08:07:58;974.5;;;928.1;;
14324;SDS011;7246;51.922;4.488;2022-09-03T08:09:57;981.0;;;934.2;;
14324;SDS011;7246;51.922;4.488;2022-09-03T08:11:57;982.6;;;935.7;;
14324;SDS011;7246;51.922;4.488;2022-09-03T08:13:58;975.1;;;928.6;;
14324;SDS011;7246;51.922;4.488;2022-09-03T08:15:57;969.7;;;923.4;;
14324;SDS011;7246;51.922;4.488;2022-09-03T08:17:57;982.8;;;935.9;;
14324;SDS011;7246;51.922;4.488;2022-09-03T08:19:57;998.6;;;951.0;;
14324;SDS011;7246;51.922;4.488;2022-09-03T08:21:57;985.0;;;938.1;;
14324;SDS011;7246;51.922;4.488;2022-09-03T08:23:57;1043.4;;;985.9;;
14324;SDS011;7246;51.922;4.488;2022-09-03T08:25:57;1083.1;;;999.9;;
14324;SDS011;7246;51.922;4.488;2022-09-03T08:27:57;1084.6;;;999.9;;
14324;SDS011;7246;51.922;4.488;2022-09-03T08:29:57;1094.9;;;999.9;;
14324;SDS011;7246;51.922;4.488;2022-09-03T08:31:57;1083.7;;;999.9;;
14324;SDS011;7246;51.922;4.488;2022-09-03T08:33:57;1094.8;;;999.9;;
14324;SDS011;7246;51.922;4.488;2022-09-03T08:35:57;1064.8;;;995.7;;
14324;SDS011;7246;51.922;4.488;2022-09-03T08:37:57;1071.8;;;999.9;;
14324;SDS011;7246;51.922;4.488;2022-09-03T08:39:57;1086.9;;;999.9;;
14324;SDS011;7246;51.922;4.488;2022-09-03T08:44:05;1098.9;;;999.9;;
14324;SDS011;7246;51.922;4.488;2022-09-03T08:45:57;1088.4;;;999.9;;
14324;SDS011;7246;51.922;4.488;2022-09-03T08:47:58;1066.1;;;999.8;;
14324;SDS011;7246;51.922;4.488;2022-09-03T08:49:58;1080.4;;;996.0;;
14324;SDS011;7246;51.922;4.488;2022-09-03T08:51:57;1090.7;;;999.9;;
14324;SDS011;7246;51.922;4.488;2022-09-03T08:53:57;1065.0;;;999.4;;
14324;SDS011;7246;51.922;4.488;2022-09-03T08:55:58;1088.6;;;999.9;;
14324;SDS011;7246;51.922;4.488;2022-09-03T08:58:01;1045.2;;;995.4;;
14324;SDS011;7246;51.922;4.488;2022-09-03T08:59:57;1055.0;;;997.3;;
14324;SDS011;7246;51.922;4.488;2022-09-03T09:01:58;1031.6;;;982.4;;
14324;SDS011;7246;51.922;4.488;2022-09-03T09:04:00;1042.2;;;990.9;;
14324;SDS011;7246;51.922;4.488;2022-09-03T09:05:59;1041.9;;;992.2;;
14324;SDS011;7246;51.922;4.488;2022-09-03T09:08:00;1004.7;;;956.8;;
14324;SDS011;7246;51.922;4.488;2022-09-03T09:09:59;1016.5;;;968.0;;
14324;SDS011;7246;51.922;4.488;2022-09-03T09:12:00;1016.2;;;967.7;;
14324;SDS011;7246;51.922;4.488;2022-09-03T09:13:58;1025.0;;;976.1;;
14324;SDS011;7246;51.922;4.488;2022-09-03T09:16:00;1036.9;;;987.5;;
14324;SDS011;7246;51.922;4.488;2022-09-03T09:18:02;1056.8;;;989.7;;
14324;SDS011;7246;51.922;4.488;2022-09-03T09:20:00;1106.2;;;999.9;;
14324;SDS011;7246;51.922;4.488;2022-09-03T09:21:58;1103.8;;;999.9;;
14324;SDS011;7246;51.922;4.488;2022-09-03T09:23:59;1132.0;;;999.9;;
14324;SDS011;7246;51.922;4.488;2022-09-03T09:25:58;1168.9;;;999.9;;
14324;SDS011;7246;51.922;4.488;2022-09-03T09:27:58;1178.8;;;999.9;;
14324;SDS011;7246;51.922;4.488;2022-09-03T09:29:58;1151.1;;;999.9;;
14324;SDS011;7246;51.922;4.488;2022-09-03T09:31:57;1173.7;;;999.9;;
14324;SDS011;7246;51.922;4.488;2022-09-03T09:33:59;1177.0;;;999.9;;
14324;SDS011;7246;51.922;4.488;2022-09-03T09:35:58;1169.9;;;999.9;;
14324;SDS011;7246;51.922;4.488;2022-09-03T09:37:58;1189.8;;;999.9;;
14324;SDS011;7246;51.922;4.488;2022-09-03T09:39:59;1191.9;;;999.9;;
14324;SDS011;7246;51.922;4.488;2022-09-03T09:41:58;1168.9;;;999.9;;
14324;SDS011;7246;51.922;4.488;2022-09-03T09:43:58;1179.3;;;999.9;;
14324;SDS011;7246;51.922;4.488;2022-09-03T09:46:04;1169.8;;;999.9;;
14324;SDS011;7246;51.922;4.488;2022-09-03T09:47:58;1202.6;;;999.9;;
14324;SDS011;7246;51.922;4.488;2022-09-03T09:49:58;1196.1;;;999.9;;
14324;SDS011;7246;51.922;4.488;2022-09-03T09:51:59;1161.4;;;999.9;;
14324;SDS011;7246;51.922;4.488;2022-09-03T09:53:59;1137.4;;;999.9;;
14324;SDS011;7246;51.922;4.488;2022-09-03T09:55:58;1144.4;;;999.9;;
14324;SDS011;7246;51.922;4.488;2022-09-03T09:58:05;1136.2;;;999.9;;
14324;SDS011;7246;51.922;4.488;2022-09-03T10:00:02;1115.6;;;999.9;;
14324;SDS011;7246;51.922;4.488;2022-09-03T10:02:02;1119.9;;;999.9;;
14324;SDS011;7246;51.922;4.488;2022-09-03T10:03:58;1099.8;;;999.9;;
14324;SDS011;7246;51.922;4.488;2022-09-03T10:06:00;1113.7;;;999.9;;
14324;SDS011;7246;51.922;4.488;2022-09-03T10:07:59;1103.5;;;999.9;;
14324;SDS011;7246;51.922;4.488;2022-09-03T10:09:59;1112.8;;;999.9;;
14324;SDS011;7246;51.922;4.488;2022-09-03T10:12:02;1120.1;;;999.9;;
14324;SDS011;7246;51.922;4.488;2022-09-03T10:13:58;1110.1;;;999.9;;
14324;SDS011;7246;51.922;4.488;2022-09-03T10:16:00;1116.5;;;999.9;;
14324;SDS011;7246;51.922;4.488;2022-09-03T10:18:01;1131.1;;;999.9;;
14324;SDS011;7246;51.922;4.488;2022-09-03T10:20:00;1135.5;;;999.9;;
14324;SDS011;7246;51.922;4.488;2022-09-03T10:22:00;1153.4;;;999.9;;
14324;SDS011;7246;51.922;4.488;2022-09-03T10:23:59;1166.3;;;999.9;;
14324;SDS011;7246;51.922;4.488;2022-09-03T10:25:59;1166.7;;;999.9;;
14324;SDS011;7246;51.922;4.488;2022-09-03T10:27:58;1134.0;;;999.9;;
14324;SDS011;7246;51.922;4.488;2022-09-03T10:29:58;1114.4;;;999.9;;
14324;SDS011;7246;51.922;4.488;2022-09-03T10:32:01;1170.5;;;999.9;;
14324;SDS011;7246;51.922;4.488;2022-09-03T10:33:59;1236.0;;;999.9;;
14324;SDS011;7246;51.922;4.488;2022-09-03T10:36:02;1293.5;;;999.9;;
14324;SDS011;7246;51.922;4.488;2022-09-03T10:38:02;1290.0;;;999.9;;
14324;SDS011;7246;51.922;4.488;2022-09-03T10:40:03;1099.9;;;999.9;;
14324;SDS011;7246;51.922;4.488;2022-09-03T10:42:02;1064.6;;;999.9;;
14324;SDS011;7246;51.922;4.488;2022-09-03T10:44:03;1073.6;;;999.9;;
14324;SDS011;7246;51.922;4.488;2022-09-03T10:45:59;1080.2;;;999.9;;
14324;SDS011;7246;51.922;4.488;2022-09-03T10:48:02;1065.0;;;999.9;;
14324;SDS011;7246;51.922;4.488;2022-09-03T10:49:59;1032.6;;;982.0;;
14324;SDS011;7246;51.922;4.488;2022-09-03T10:52:00;1032.3;;;983.0;;
14324;SDS011;7246;51.922;4.488;2022-09-03T10:54:02;1014.7;;;966.4;;
14324;SDS011;7246;51.922;4.488;2022-09-03T10:55:59;1077.0;;;991.7;;
14324;SDS011;7246;51.922;4.488;2022-09-03T10:58:02;1192.0;;;999.9;;
14324;SDS011;7246;51.922;4.488;2022-09-03T11:00:00;1202.7;;;999.9;;
14324;SDS011;7246;51.922;4.488;2022-09-03T11:02:02;1192.7;;;999.9;;
14324;SDS011;7246;51.922;4.488;2022-09-03T11:04:03;1187.0;;;999.9;;
14324;SDS011;7246;51.922;4.488;2022-09-03T11:06:00;1179.6;;;999.9;;
14324;SDS011;7246;51.922;4.488;2022-09-03T11:08:00;1116.4;;;999.9;;
14324;SDS011;7246;51.922;4.488;2022-09-03T11:10:00;1096.3;;;999.9;;
14324;SDS011;7246;51.922;4.488;2022-09-03T11:11:59;1127.3;;;999.9;;
14324;SDS011;7246;51.922;4.488;2022-09-03T11:14:01;1110.6;;;999.9;;
14324;SDS011;7246;51.922;4.488;2022-09-03T11:15:59;1115.0;;;999.9;;
14324;SDS011;7246;51.922;4.488;2022-09-03T11:18:00;1193.3;;;999.9;;
14324;SDS011;7246;51.922;4.488;2022-09-03T11:20:01;1202.5;;;999.9;;
14324;SDS011;7246;51.922;4.488;2022-09-03T11:21:59;1173.4;;;999.9;;
14324;SDS011;7246;51.922;4.488;2022-09-03T11:24:01;1185.8;;;999.9;;
14324;SDS011;7246;51.922;4.488;2022-09-03T11:25:59;1163.3;;;999.9;;
14324;SDS011;7246;51.922;4.488;2022-09-03T11:28:02;1191.0;;;999.9;;
14324;SDS011;7246;51.922;4.488;2022-09-03T11:30:00;1208.8;;;999.9;;
14324;SDS011;7246;51.922;4.488;2022-09-03T11:31:59;1171.2;;;999.9;;
14324;SDS011;7246;51.922;4.488;2022-09-03T11:33:59;1154.5;;;999.9;;
14324;SDS011;7246;51.922;4.488;2022-09-03T11:35:59;1114.1;;;999.9;;
14324;SDS011;7246;51.922;4.488;2022-09-03T11:37:59;1052.7;;;998.1;;
14324;SDS011;7246;51.922;4.488;2022-09-03T11:40:02;1061.1;;;999.9;;
14324;SDS011;7246;51.922;4.488;2022-09-03T11:41:59;1069.4;;;999.9;;
14324;SDS011;7246;51.922;4.488;2022-09-03T11:44:09;1070.6;;;999.9;;
14324;SDS011;7246;51.922;4.488;2022-09-03T11:46:01;1073.6;;;999.9;;
14324;SDS011;7246;51.922;4.488;2022-09-03T11:47:59;1056.4;;;994.2;;
14324;SDS011;7246;51.922;4.488;2022-09-03T11:50:04;1049.3;;;996.3;;
14324;SDS011;7246;51.922;4.488;2022-09-03T11:52:00;1065.8;;;998.8;;